Time;durP1;ratioP1;P1;durP2;ratioP2;P2;SDS_P1;SDS_P2;PMS_P1;PMS_P2;Temp;Humidity;BMP_temperature;BMP_pressure;BME280_temperature;BME280_humidity;BME280_pressure;Samples;Min_cycle;Max_cycle;Signal;HPM_P1;HPM_P2
2023/01/24 00:02:25;;;;;;;8.73;6.18;;;3.50;99.90;;;;;;4925352;29;20099;-72
2023/01/24 00:04:51;;;;;;;8.73;6.07;;;3.60;99.90;;;;;;4938288;29;20123;-72
2023/01/24 00:07:16;;;;;;;6.85;5.55;;;3.60;99.90;;;;;;4951963;29;20051;-72
2023/01/24 00:09:42;;;;;;;6.47;4.85;;;3.50;99.90;;;;;;4931642;28;20054;-72
2023/01/24 00:12:08;;;;;;;5.85;4.65;;;3.60;99.90;;;;;;4942815;29;20051;-73
2023/01/24 00:14:33;;;;;;;5.25;4.45;;;3.60;99.90;;;;;;4944224;29;20076;-73
2023/01/24 00:16:59;;;;;;;5.25;3.97;;;3.60;99.90;;;;;;4938593;29;20071;-73
2023/01/24 00:19:25;;;;;;;5.20;3.95;;;3.60;99.90;;;;;;4930528;29;20044;-72
2023/01/24 00:21:50;;;;;;;6.70;4.25;;;3.60;99.90;;;;;;4957899;28;20516;-72
2023/01/24 00:24:16;;;;;;;6.38;5.15;;;3.60;99.90;;;;;;4935884;28;20054;-72
2023/01/24 00:26:42;;;;;;;8.80;6.57;;;3.60;99.90;;;;;;4952476;28;20049;-72
2023/01/24 00:29:07;;;;;;;7.70;6.20;;;3.60;99.90;;;;;;4938777;29;20522;-72
2023/01/24 00:31:33;;;;;;;8.25;6.20;;;3.50;99.90;;;;;;4929753;29;20046;-72
2023/01/24 00:33:59;;;;;;;10.77;7.35;;;3.60;99.90;;;;;;4949489;29;20043;-72
2023/01/24 00:36:25;;;;;;;11.10;6.57;;;3.60;99.90;;;;;;4951743;29;20043;-72
2023/01/24 00:38:51;;;;;;;9.15;6.50;;;3.60;99.90;;;;;;4930809;29;20483;-72
2023/01/24 00:41:16;;;;;;;9.93;7.28;;;3.60;99.90;;;;;;4932461;29;20055;-72
2023/01/24 00:43:42;;;;;;;11.40;8.23;;;3.60;99.90;;;;;;4939581;29;20399;-72
2023/01/24 00:46:09;;;;;;;11.30;8.02;;;3.60;99.90;;;;;;4952692;29;20106;-72
2023/01/24 00:48:35;;;;;;;9.07;7.35;;;3.60;99.90;;;;;;4950162;29;20063;-72
2023/01/24 00:51:00;;;;;;;8.77;6.82;;;3.60;99.90;;;;;;4951320;29;20085;-72
2023/01/24 00:53:26;;;;;;;8.15;6.13;;;3.60;99.90;;;;;;4947147;29;20098;-72
2023/01/24 00:55:54;;;;;;;8.88;6.68;;;3.60;99.90;;;;;;4945388;28;20337;-72
2023/01/24 00:58:20;;;;;;;8.32;6.47;;;3.60;99.90;;;;;;4940949;28;20056;-72
2023/01/24 01:00:46;;;;;;;10.95;8.05;;;3.60;99.90;;;;;;4970428;28;20058;-72
2023/01/24 01:03:19;;;;;;;11.10;7.25;;;3.60;99.90;;;;;;4954395;28;20047;-72
2023/01/24 01:05:45;;;;;;;7.80;5.80;;;3.60;99.90;;;;;;4939461;29;20114;-72
2023/01/24 01:08:11;;;;;;;7.72;6.05;;;3.60;99.90;;;;;;4937156;29;20507;-72
2023/01/24 01:10:38;;;;;;;9.55;7.13;;;3.60;99.90;;;;;;4937331;29;20694;-73
2023/01/24 01:13:03;;;;;;;10.15;6.65;;;3.60;99.90;;;;;;4937373;29;20058;-72
2023/01/24 01:15:29;;;;;;;9.32;7.10;;;3.60;99.90;;;;;;4934983;29;20047;-72
2023/01/24 01:17:57;;;;;;;7.88;5.95;;;3.60;99.90;;;;;;4955016;29;20058;-72
2023/01/24 01:20:23;;;;;;;7.50;6.00;;;3.70;99.90;;;;;;4954492;29;20047;-72
2023/01/24 01:22:49;;;;;;;6.90;5.35;;;3.60;99.90;;;;;;4954341;29;20493;-72
2023/01/24 01:25:14;;;;;;;6.25;5.00;;;3.70;99.90;;;;;;4941784;29;20043;-72
2023/01/24 01:27:40;;;;;;;6.75;4.82;;;3.70;99.90;;;;;;4935918;29;20058;-72
2023/01/24 01:30:06;;;;;;;7.45;5.78;;;3.70;99.90;;;;;;4930321;29;20431;-72
2023/01/24 01:32:32;;;;;;;7.75;5.40;;;3.70;99.90;;;;;;4953843;29;20046;-73
2023/01/24 01:34:58;;;;;;;6.32;4.70;;;3.70;99.90;;;;;;4947410;29;20035;-72
2023/01/24 01:37:24;;;;;;;5.65;4.60;;;3.70;99.90;;;;;;4954580;29;20126;-72
2023/01/24 01:39:49;;;;;;;5.53;4.60;;;3.70;99.90;;;;;;4951412;29;20047;-72
2023/01/24 01:42:15;;;;;;;4.45;3.10;;;3.70;99.90;;;;;;4954664;29;20053;-72
2023/01/24 01:44:43;;;;;;;5.72;4.22;;;3.70;99.90;;;;;;4933455;29;20047;-72
2023/01/24 01:47:24;;;;;;;5.45;4.55;;;3.70;99.90;;;;;;4952422;29;20047;-72
2023/01/24 01:49:56;;;;;;;5.82;4.22;;;3.70;99.90;;;;;;4936623;29;20051;-73
2023/01/24 01:52:26;;;;;;;5.35;4.15;;;3.70;99.90;;;;;;4936185;29;20234;-73
2023/01/24 01:54:55;;;;;;;6.22;4.70;;;3.70;99.90;;;;;;4935107;29;20058;-73
2023/01/24 01:57:24;;;;;;;6.85;4.72;;;3.70;99.90;;;;;;4917418;29;20098;-72
2023/01/24 02:00:09;;;;;;;7.95;6.22;;;3.70;99.90;;;;;;4907567;29;20070;-72
2023/01/24 02:02:36;;;;;;;8.00;5.68;;;3.80;99.90;;;;;;4931563;29;20047;-72
2023/01/24 02:05:06;;;;;;;7.75;5.28;;;3.70;99.90;;;;;;4915166;29;20530;-72
2023/01/24 02:07:45;;;;;;;9.35;6.90;;;3.80;99.90;;;;;;4935872;29;20513;-72
2023/01/24 02:10:11;;;;;;;6.72;5.10;;;3.80;99.90;;;;;;4935109;29;20082;-72
2023/01/24 02:12:40;;;;;;;6.57;4.80;;;3.80;99.90;;;;;;4937137;29;20483;-72
2023/01/24 02:17:57;;;;;;;5.53;4.15;;;3.80;99.90;;;;;;4931931;29;20158;-72
2023/01/24 02:20:25;;;;;;;6.40;4.50;;;3.80;99.90;;;;;;4934805;29;20043;-72
2023/01/24 02:23:15;;;;;;;5.82;4.25;;;3.80;99.90;;;;;;4936517;29;20054;-73
2023/01/24 02:25:53;;;;;;;8.50;5.63;;;3.80;99.90;;;;;;4933945;29;20046;-72
2023/01/24 02:28:19;;;;;;;7.20;5.20;;;3.80;99.90;;;;;;4930818;29;20043;-72
2023/01/24 02:30:44;;;;;;;6.97;5.03;;;3.80;99.90;;;;;;4927966;29;20130;-72
2023/01/24 02:33:13;;;;;;;6.30;4.63;;;3.80;99.90;;;;;;4937634;29;20055;-72
2023/01/24 02:35:39;;;;;;;6.18;4.63;;;3.80;99.90;;;;;;4928709;29;20339;-73
2023/01/24 02:38:13;;;;;;;7.95;5.68;;;3.80;99.90;;;;;;4918175;29;20047;-72
2023/01/24 02:40:39;;;;;;;13.35;10.02;;;3.80;99.90;;;;;;4930782;29;20050;-72
2023/01/24 02:43:07;;;;;;;18.88;12.23;;;3.80;99.90;;;;;;4926917;29;20051;-72
2023/01/24 02:45:34;;;;;;;15.15;11.60;;;3.80;99.90;;;;;;4912657;29;20376;-72
2023/01/24 02:47:59;;;;;;;12.52;9.20;;;3.90;99.90;;;;;;4939926;29;20984;-72
2023/01/24 02:53:30;;;;;;;10.02;6.72;;;3.80;99.90;;;;;;4952171;29;20051;-72
2023/01/24 02:58:49;;;;;;;8.95;7.00;;;3.80;99.90;;;;;;4939328;29;20051;-72
2023/01/24 03:01:15;;;;;;;10.05;7.70;;;3.80;99.90;;;;;;4952568;29;20039;-72
2023/01/24 03:03:42;;;;;;;11.65;7.75;;;3.80;99.90;;;;;;4952036;29;20123;-72
2023/01/24 03:06:09;;;;;;;11.43;8.55;;;3.90;99.90;;;;;;4946777;29;20047;-72
2023/01/24 03:08:35;;;;;;;10.60;7.68;;;3.90;99.90;;;;;;4935804;29;20478;-72
2023/01/24 03:11:01;;;;;;;10.90;7.78;;;3.90;99.90;;;;;;4952258;29;20120;-72
2023/01/24 03:35:21;;;;;;;7.68;5.70;;;3.90;99.90;;;;;;4945653;29;20082;-72
2023/01/24 03:40:31;;;;;;;5.78;4.13;;;3.90;99.90;;;;;;4950956;29;20049;-72
2023/01/24 03:42:59;;;;;;;4.35;3.60;;;3.90;99.90;;;;;;4935797;29;20130;-72
2023/01/24 03:45:27;;;;;;;5.97;3.92;;;3.90;99.90;;;;;;4934888;29;20105;-72
2023/01/24 03:47:55;;;;;;;7.13;5.57;;;3.90;99.90;;;;;;4944290;29;20091;-72
2023/01/24 03:53:08;;;;;;;7.38;5.50;;;3.90;99.90;;;;;;4950955;29;20042;-72
2023/01/24 03:55:33;;;;;;;8.75;6.10;;;3.90;99.90;;;;;;4950067;28;20090;-72
2023/01/24 03:57:59;;;;;;;9.52;6.88;;;3.90;99.90;;;;;;4937101;29;20047;-72
2023/01/24 04:00:25;;;;;;;9.27;7.25;;;3.90;99.90;;;;;;4944806;29;20035;-72
2023/01/24 04:02:51;;;;;;;10.07;8.13;;;3.90;99.90;;;;;;4947930;29;20121;-72
2023/01/24 04:05:17;;;;;;;10.25;7.10;;;3.90;99.90;;;;;;4930412;29;20043;-72
2023/01/24 04:07:43;;;;;;;10.75;7.07;;;3.90;99.90;;;;;;4948382;29;20053;-72
2023/01/24 04:10:09;;;;;;;8.48;6.10;;;3.80;99.90;;;;;;4948731;29;20087;-72
2023/01/24 04:12:35;;;;;;;9.43;7.25;;;3.80;99.90;;;;;;4946093;29;20039;-72
2023/01/24 04:15:01;;;;;;;12.77;9.17;;;3.80;99.90;;;;;;4949264;28;20049;-72
2023/01/24 04:17:26;;;;;;;15.40;10.85;;;3.80;99.90;;;;;;4940388;29;20386;-72
2023/01/24 04:19:52;;;;;;;14.97;10.17;;;3.80;99.90;;;;;;4945112;28;20088;-72
2023/01/24 04:22:18;;;;;;;11.30;8.27;;;3.80;99.90;;;;;;4957802;28;20330;-72
2023/01/24 04:24:45;;;;;;;12.43;8.63;;;3.80;99.90;;;;;;4944799;29;20038;-72
2023/01/24 04:27:11;;;;;;;11.10;8.50;;;3.80;99.90;;;;;;4936311;29;20046;-73
2023/01/24 04:29:37;;;;;;;;;;;3.80;99.90;;;;;;4928073;29;20051;-72
2023/01/24 04:32:03;;;;;;;11.68;8.48;;;3.80;99.90;;;;;;4949726;29;19928;-72
2023/01/24 04:34:28;;;;;;;13.13;9.30;;;3.80;99.90;;;;;;4941719;29;20126;-72
2023/01/24 04:36:54;;;;;;;11.98;9.32;;;3.80;99.90;;;;;;4916952;29;20403;-72
2023/01/24 04:39:20;;;;;;;10.27;7.90;;;3.80;99.90;;;;;;4940473;29;20053;-72
2023/01/24 04:41:45;;;;;;;9.90;8.02;;;3.80;99.90;;;;;;4948526;29;20039;-72
2023/01/24 04:44:11;;;;;;;10.18;7.63;;;3.70;99.90;;;;;;4939109;29;20039;-72
2023/01/24 04:46:37;;;;;;;8.35;6.72;;;3.70;99.90;;;;;;4950222;29;20046;-72
2023/01/24 04:49:02;;;;;;;9.55;7.53;;;3.70;99.90;;;;;;4941156;29;20065;-72
2023/01/24 04:51:28;;;;;;;9.48;7.55;;;3.70;99.90;;;;;;4934987;29;20062;-72
2023/01/24 04:53:54;;;;;;;9.40;7.03;;;3.70;99.90;;;;;;4945721;29;20050;-72
2023/01/24 04:56:19;;;;;;;10.60;8.07;;;3.70;99.90;;;;;;4920138;29;20055;-72
2023/01/24 04:58:45;;;;;;;11.30;8.07;;;3.70;99.90;;;;;;4929668;29;20106;-72
2023/01/24 05:01:11;;;;;;;8.20;6.70;;;3.60;99.90;;;;;;4933724;29;20090;-72
2023/01/24 05:03:36;;;;;;;11.65;8.98;;;3.60;99.90;;;;;;4949413;29;20051;-72
2023/01/24 05:06:02;;;;;;;13.25;10.05;;;3.60;99.90;;;;;;4949929;29;20047;-72
2023/01/24 05:08:28;;;;;;;15.50;12.10;;;3.60;99.90;;;;;;4944889;29;20039;-72
2023/01/24 05:10:54;;;;;;;14.13;10.85;;;3.60;99.90;;;;;;4935151;29;20078;-72
2023/01/24 05:13:19;;;;;;;15.13;11.40;;;3.60;99.90;;;;;;4949317;29;20047;-72
2023/01/24 05:15:50;;;;;;;14.40;10.68;;;3.60;99.90;;;;;;4916777;29;20411;-72
2023/01/24 05:18:17;;;;;;;13.70;10.57;;;3.60;99.90;;;;;;4941142;29;20130;-72
2023/01/24 05:20:43;;;;;;;14.52;10.50;;;3.60;99.90;;;;;;4950393;28;20094;-72
2023/01/24 05:23:09;;;;;;;12.73;10.02;;;3.60;99.90;;;;;;4944600;29;20191;-72
2023/01/24 05:25:35;;;;;;;11.05;8.98;;;3.50;99.90;;;;;;4938327;29;20051;-72
2023/01/24 05:28:00;;;;;;;10.13;7.55;;;3.50;99.90;;;;;;4943156;29;20047;-72
2023/01/24 05:30:26;;;;;;;12.95;9.43;;;3.50;99.90;;;;;;4931830;29;20054;-72
2023/01/24 05:32:56;;;;;;;12.25;9.13;;;3.50;99.90;;;;;;4938920;29;20099;-72
2023/01/24 05:35:21;;;;;;;16.42;11.52;;;3.50;99.90;;;;;;4944784;29;20047;-72
2023/01/24 05:37:47;;;;;;;16.35;11.75;;;3.50;99.90;;;;;;4946003;29;20562;-72
2023/01/24 05:40:13;;;;;;;15.10;10.57;;;3.50;99.90;;;;;;4933770;29;20050;-72
2023/01/24 05:42:42;;;;;;;13.20;10.10;;;3.50;99.90;;;;;;4949200;29;20108;-72
2023/01/24 05:45:09;;;;;;;12.73;9.90;;;3.50;99.90;;;;;;4939200;28;20047;-72
2023/01/24 05:47:34;;;;;;;13.95;10.77;;;3.50;99.90;;;;;;4947780;28;20114;-72
2023/01/24 05:50:00;;;;;;;15.00;11.45;;;3.50;99.90;;;;;;4903267;29;20051;-72
2023/01/24 05:52:26;;;;;;;16.80;11.48;;;3.40;99.90;;;;;;4919915;29;20035;-72
2023/01/24 05:54:52;;;;;;;13.65;10.95;;;3.40;99.90;;;;;;4920957;29;20078;-72
2023/01/24 05:57:18;;;;;;;13.68;10.73;;;3.50;99.90;;;;;;4929930;29;20048;-72
2023/01/24 05:59:44;;;;;;;14.65;11.45;;;3.50;99.90;;;;;;4933967;28;20102;-72
2023/01/24 06:02:10;;;;;;;15.93;12.20;;;3.50;99.90;;;;;;4922456;29;20480;-72
2023/01/24 06:04:36;;;;;;;18.40;12.75;;;3.50;99.90;;;;;;4926802;29;20048;-72
2023/01/24 06:07:02;;;;;;;16.70;12.50;;;3.50;99.90;;;;;;4926625;29;20395;-72
2023/01/24 06:09:27;;;;;;;16.48;12.18;;;3.50;99.90;;;;;;4914315;29;20154;-72
2023/01/24 06:11:53;;;;;;;17.63;13.07;;;3.40;99.90;;;;;;4905895;29;20574;-72
2023/01/24 06:14:19;;;;;;;19.42;14.55;;;3.40;99.90;;;;;;4935301;28;20047;-72
2023/01/24 06:16:46;;;;;;;16.15;12.68;;;3.40;99.90;;;;;;4935899;29;20043;-72
2023/01/24 06:19:12;;;;;;;;;;;3.40;99.90;;;;;;4919794;29;20050;-72
2023/01/24 06:21:59;;;;;;;17.77;12.65;;;3.40;99.90;;;;;;4937728;29;19922;-72
2023/01/24 06:24:26;;;;;;;16.88;12.90;;;3.40;99.90;;;;;;4934602;28;20042;-72
2023/01/24 06:26:53;;;;;;;17.15;12.50;;;3.40;99.90;;;;;;4943145;29;20141;-72
2023/01/24 06:29:19;;;;;;;;;;;3.40;99.90;;;;;;4951044;29;20051;-72
2023/01/24 06:32:16;;;;;;;19.38;13.02;;;3.40;99.90;;;;;;4934750;29;19918;-72
2023/01/24 06:35:09;;;;;;;16.83;12.05;;;3.40;99.90;;;;;;4929762;29;20051;-73
2023/01/24 06:37:46;;;;;;;13.98;10.27;;;3.40;99.90;;;;;;4934333;29;20063;-72
2023/01/24 06:40:14;;;;;;;14.25;10.10;;;3.40;99.90;;;;;;4934992;29;20139;-73
2023/01/24 06:42:40;;;;;;;16.98;12.48;;;3.40;99.90;;;;;;4935171;29;20039;-73
2023/01/24 06:45:06;;;;;;;17.05;13.30;;;3.40;99.90;;;;;;4934523;29;20039;-72
2023/01/24 06:47:32;;;;;;;;;;;3.40;99.90;;;;;;4920024;29;20040;-72
2023/01/24 06:49:57;;;;;;;18.55;13.82;;;3.40;99.90;;;;;;4935392;29;19926;-72
2023/01/24 06:52:23;;;;;;;17.80;12.63;;;3.30;99.90;;;;;;4931615;29;20101;-72
2023/01/24 06:54:49;;;;;;;17.33;12.43;;;3.30;99.90;;;;;;4931882;29;20078;-72
2023/01/24 06:57:15;;;;;;;14.48;10.98;;;3.30;99.90;;;;;;4935574;29;20378;-72
2023/01/24 06:59:40;;;;;;;14.05;10.90;;;3.30;99.90;;;;;;4936989;29;20110;-72
2023/01/24 07:02:06;;;;;;;14.43;11.02;;;3.30;99.90;;;;;;4937230;29;20479;-72
2023/01/24 07:04:32;;;;;;;14.25;10.23;;;3.30;99.90;;;;;;4920732;29;20416;-72
2023/01/24 07:06:58;;;;;;;18.00;12.75;;;3.30;99.90;;;;;;4936335;29;20043;-72
2023/01/24 07:09:24;;;;;;;21.95;15.48;;;3.30;99.90;;;;;;4936062;29;20051;-72
2023/01/24 07:11:52;;;;;;;18.33;13.05;;;3.30;99.90;;;;;;4936784;29;20047;-72
2023/01/24 07:14:21;;;;;;;21.08;15.02;;;3.30;99.90;;;;;;4954823;29;20073;-72
2023/01/24 07:16:49;;;;;;;22.30;14.88;;;3.20;99.90;;;;;;4936957;29;20530;-72
2023/01/24 07:19:17;;;;;;;19.73;13.95;;;3.20;99.90;;;;;;4936711;29;20047;-72
2023/01/24 07:21:43;;;;;;;19.23;14.60;;;3.20;99.90;;;;;;4936902;29;20129;-72
2023/01/24 07:24:27;;;;;;;18.33;13.68;;;3.20;99.90;;;;;;4936957;29;20082;-72
2023/01/24 07:26:54;;;;;;;15.40;11.45;;;3.20;99.90;;;;;;4936590;29;20054;-72
2023/01/24 07:29:21;;;;;;;19.02;13.80;;;3.30;99.90;;;;;;4937188;29;20391;-72
2023/01/24 07:31:50;;;;;;;17.30;12.43;;;3.30;99.90;;;;;;4936791;29;20050;-72
2023/01/24 07:34:16;;;;;;;17.35;12.60;;;3.30;99.90;;;;;;4920775;29;20061;-72
2023/01/24 07:36:42;;;;;;;;;;;3.30;99.90;;;;;;4937072;29;20039;-72
2023/01/24 07:39:08;;;;;;;20.05;13.45;;;3.30;99.90;;;;;;4936265;29;20009;-72
2023/01/24 07:41:35;;;;;;;20.17;13.38;;;3.30;99.90;;;;;;4920566;29;20047;-72
2023/01/24 07:44:04;;;;;;;15.05;11.57;;;3.20;99.90;;;;;;4936673;29;20074;-72
2023/01/24 07:46:32;;;;;;;15.77;10.98;;;3.30;99.90;;;;;;4936282;29;20047;-72
2023/01/24 07:48:57;;;;;;;13.48;9.68;;;3.20;99.90;;;;;;4945789;29;20066;-72
2023/01/24 07:51:23;;;;;;;11.80;8.82;;;3.20;99.90;;;;;;4952157;29;20057;-72
2023/01/24 07:53:49;;;;;;;15.02;11.18;;;3.20;99.90;;;;;;4916478;29;20048;-72
2023/01/24 07:56:17;;;;;;;18.02;12.88;;;3.20;99.90;;;;;;4949333;28;20078;-72
2023/01/24 07:58:43;;;;;;;14.43;11.02;;;3.20;99.90;;;;;;4952151;29;20138;-72
2023/01/24 08:01:09;;;;;;;14.68;11.35;;;3.20;99.90;;;;;;4952171;29;20130;-72
2023/01/24 08:03:35;;;;;;;14.90;11.25;;;3.20;99.90;;;;;;4952076;29;20043;-72
2023/01/24 08:06:03;;;;;;;16.33;11.88;;;3.30;99.90;;;;;;4952202;29;20050;-72
2023/01/24 08:08:29;;;;;;;16.00;11.38;;;3.20;99.90;;;;;;4953508;28;20055;-72
2023/01/24 08:10:55;;;;;;;17.73;13.07;;;3.20;99.90;;;;;;4951876;29;20043;-72
2023/01/24 08:13:21;;;;;;;14.67;11.77;;;3.20;99.90;;;;;;4936025;29;20291;-72
2023/01/24 08:15:47;;;;;;;16.05;11.70;;;3.20;99.90;;;;;;4936007;29;20301;-72
2023/01/24 08:18:13;;;;;;;13.45;10.48;;;3.20;99.90;;;;;;4951729;28;20047;-72
2023/01/24 08:20:39;;;;;;;14.38;10.68;;;3.20;99.90;;;;;;4951983;29;20109;-72
2023/01/24 08:23:04;;;;;;;12.20;9.10;;;3.30;99.90;;;;;;4951782;29;20470;-72
2023/01/24 08:25:31;;;;;;;13.98;10.82;;;3.30;99.90;;;;;;4951507;29;20287;-72
2023/01/24 08:27:57;;;;;;;12.77;10.10;;;3.30;99.90;;;;;;4951650;29;20131;-72
2023/01/24 08:30:23;;;;;;;12.35;9.45;;;3.30;99.90;;;;;;4951726;29;20127;-72
2023/01/24 08:32:57;;;;;;;11.85;9.15;;;3.30;99.90;;;;;;4935628;29;20047;-72
2023/01/24 08:35:23;;;;;;;13.80;10.80;;;3.30;99.90;;;;;;4935439;29;20055;-72
2023/01/24 08:37:49;;;;;;;13.25;9.82;;;3.30;99.90;;;;;;4935489;29;20053;-72
2023/01/24 08:40:14;;;;;;;13.77;10.55;;;3.30;99.90;;;;;;4951612;29;20051;-72
2023/01/24 08:42:40;;;;;;;13.68;9.50;;;3.30;99.90;;;;;;4951691;29;20419;-72
2023/01/24 08:45:06;;;;;;;13.20;9.38;;;3.30;99.90;;;;;;4951537;29;20046;-72
2023/01/24 08:47:32;;;;;;;12.98;9.52;;;3.30;99.90;;;;;;4934445;29;20371;-72
2023/01/24 08:49:58;;;;;;;12.15;9.13;;;3.30;99.90;;;;;;4935172;29;20039;-72
2023/01/24 08:52:23;;;;;;;13.75;9.80;;;3.30;99.90;;;;;;4935107;29;20047;-72
2023/01/24 08:54:49;;;;;;;13.25;10.02;;;3.30;99.90;;;;;;4935129;29;20047;-72
2023/01/24 08:57:15;;;;;;;13.07;9.57;;;3.30;99.90;;;;;;4935260;29;20158;-72
2023/01/24 08:59:40;;;;;;;14.48;10.48;;;3.40;99.90;;;;;;4934920;29;20126;-72
2023/01/24 09:02:08;;;;;;;14.07;10.30;;;3.30;99.90;;;;;;4935242;29;20513;-72
2023/01/24 09:04:34;;;;;;;12.23;9.52;;;3.40;99.90;;;;;;4935114;29;20039;-72
2023/01/24 09:06:59;;;;;;;13.63;10.52;;;3.40;99.90;;;;;;4934101;29;20051;-72
2023/01/24 09:09:25;;;;;;;15.18;11.25;;;3.40;99.90;;;;;;4934253;29;20043;-72
2023/01/24 09:11:52;;;;;;;13.65;10.50;;;3.30;99.90;;;;;;4934627;29;20054;-72
2023/01/24 09:14:17;;;;;;;14.55;11.15;;;3.30;99.90;;;;;;4935130;29;20055;-72
2023/01/24 09:16:43;;;;;;;13.90;9.63;;;3.30;99.90;;;;;;4919436;29;20058;-72
2023/01/24 09:19:11;;;;;;;11.45;8.90;;;3.40;99.90;;;;;;4935154;29;20673;-72
2023/01/24 09:21:37;;;;;;;14.02;10.25;;;3.40;99.90;;;;;;4934882;29;20043;-72
2023/01/24 09:24:03;;;;;;;12.95;9.75;;;3.40;99.90;;;;;;4935233;29;20048;-72
2023/01/24 09:26:29;;;;;;;11.95;8.88;;;3.40;99.90;;;;;;4935194;29;20511;-72
2023/01/24 09:28:55;;;;;;;12.87;9.43;;;3.40;99.90;;;;;;4936136;29;20051;-72
2023/01/24 09:31:21;;;;;;;12.23;8.65;;;3.40;99.90;;;;;;4938883;29;20916;-72
2023/01/24 09:33:46;;;;;;;10.88;8.40;;;3.40;99.90;;;;;;4938817;29;20130;-72
2023/01/24 09:36:12;;;;;;;12.10;7.97;;;3.40;99.90;;;;;;4938567;29;20050;-72
2023/01/24 09:38:38;;;;;;;10.98;8.05;;;3.40;99.90;;;;;;4938630;29;20150;-72
2023/01/24 09:41:18;;;;;;;10.48;7.82;;;3.40;99.90;;;;;;4938786;29;20043;-72
2023/01/24 09:43:58;;;;;;;10.52;8.40;;;3.40;99.90;;;;;;4938496;29;20336;-72
2023/01/24 09:46:44;;;;;;;11.80;8.48;;;3.40;99.90;;;;;;4938602;29;20157;-72
2023/01/24 09:49:29;;;;;;;11.82;8.27;;;3.40;99.90;;;;;;4933592;29;20065;-72
2023/01/24 09:51:54;;;;;;;9.75;7.32;;;3.40;99.90;;;;;;4954347;29;20058;-72
2023/01/24 09:55:06;;;;;;;10.95;8.23;;;3.40;99.90;;;;;;4938247;28;20047;-72
2023/01/24 09:58:00;;;;;;;10.50;7.65;;;3.40;99.90;;;;;;4899183;29;20131;-72
2023/01/24 10:00:32;;;;;;;12.45;8.52;;;3.40;99.90;;;;;;4883427;29;20119;-72
2023/01/24 10:03:00;;;;;;;11.55;8.55;;;3.40;99.90;;;;;;4936683;29;20557;-72
2023/01/24 10:05:46;;;;;;;11.10;8.07;;;3.40;99.90;;;;;;4955317;29;20435;-72
2023/01/24 10:08:38;;;;;;;9.80;7.60;;;3.30;99.90;;;;;;4953980;29;20051;-72
2023/01/24 10:11:21;;;;;;;8.63;6.88;;;3.40;99.90;;;;;;4953781;29;20490;-72
2023/01/24 10:14:07;;;;;;;10.73;7.60;;;3.40;99.90;;;;;;4953817;29;20047;-72
2023/01/24 10:16:44;;;;;;;11.10;7.78;;;3.40;99.90;;;;;;4954008;29;20503;-72
2023/01/24 10:19:32;;;;;;;10.15;7.78;;;3.40;99.90;;;;;;4953903;29;20070;-74
2023/01/24 10:22:16;;;;;;;9.00;6.90;;;3.40;99.90;;;;;;4937851;29;20043;-72
2023/01/24 10:24:51;;;;;;;8.77;6.35;;;3.50;99.90;;;;;;4937980;29;20113;-72
2023/01/24 10:27:30;;;;;;;9.23;6.82;;;3.50;99.90;;;;;;4953852;29;20058;-72
2023/01/24 10:30:01;;;;;;;8.48;6.30;;;3.50;99.90;;;;;;4953629;29;20054;-72
2023/01/24 10:32:34;;;;;;;6.95;5.20;;;3.50;99.90;;;;;;4953458;29;20047;-72
2023/01/24 10:35:26;;;;;;;7.97;6.05;;;3.60;99.90;;;;;;4953634;29;20505;-72
2023/01/24 10:37:55;;;;;;;10.80;7.85;;;3.60;99.90;;;;;;4953651;29;20395;-72
2023/01/24 10:40:24;;;;;;;10.43;8.00;;;3.60;99.90;;;;;;4952512;28;20047;-72
2023/01/24 10:42:50;;;;;;;12.73;8.80;;;3.50;99.90;;;;;;4937594;29;20673;-72
2023/01/24 10:45:51;;;;;;;11.05;8.38;;;3.50;99.90;;;;;;4953538;29;20079;-72
2023/01/24 10:48:16;;;;;;;10.30;7.05;;;3.50;99.90;;;;;;4937189;29;20059;-72
2023/01/24 10:50:45;;;;;;;9.73;7.00;;;3.50;99.90;;;;;;4953210;29;20170;-72
2023/01/24 10:53:32;;;;;;;9.88;7.05;;;3.50;99.90;;;;;;4953070;29;20286;-72
2023/01/24 10:56:05;;;;;;;11.00;7.43;;;3.50;99.90;;;;;;4952599;28;20051;-72
2023/01/24 10:58:43;;;;;;;10.43;8.13;;;3.50;99.90;;;;;;4953039;29;20043;-72
2023/01/24 11:01:21;;;;;;;11.60;8.15;;;3.50;99.90;;;;;;4953228;29;20046;-72
2023/01/24 11:03:49;;;;;;;11.00;7.68;;;3.40;99.90;;;;;;4953172;29;20141;-72
2023/01/24 11:06:37;;;;;;;12.07;8.30;;;3.50;99.90;;;;;;4952845;29;20047;-72
2023/01/24 11:09:07;;;;;;;9.77;8.00;;;3.40;99.90;;;;;;4953004;29;20043;-72
2023/01/24 11:11:33;;;;;;;10.32;7.80;;;3.50;99.90;;;;;;4952587;29;20517;-72
2023/01/24 11:14:00;;;;;;;8.32;6.30;;;3.50;99.90;;;;;;4952718;29;20046;-72
2023/01/24 11:16:39;;;;;;;10.32;7.63;;;3.50;99.90;;;;;;4952913;29;20094;-72
2023/01/24 11:19:05;;;;;;;11.80;8.50;;;3.50;99.90;;;;;;4952720;29;20087;-72
2023/01/24 11:21:32;;;;;;;10.13;7.07;;;3.50;99.90;;;;;;4952592;29;20581;-72
2023/01/24 11:24:13;;;;;;;10.60;7.72;;;3.50;99.90;;;;;;4952709;29;20498;-72
2023/01/24 11:26:53;;;;;;;10.50;7.75;;;3.50;99.90;;;;;;4952390;29;20517;-72
2023/01/24 11:29:19;;;;;;;10.77;7.68;;;3.50;99.90;;;;;;4952731;29;20410;-72
2023/01/24 11:31:51;;;;;;;10.45;7.38;;;3.50;99.90;;;;;;4936459;29;20047;-72
2023/01/24 11:34:40;;;;;;;10.65;7.35;;;3.50;99.90;;;;;;4936764;29;20087;-72
2023/01/24 11:37:43;;;;;;;11.35;7.72;;;3.50;99.90;;;;;;4952255;29;20062;-72
2023/01/24 11:40:34;;;;;;;11.07;7.57;;;3.50;99.90;;;;;;4951962;29;20081;-72
2023/01/24 11:43:14;;;;;;;10.90;8.18;;;3.50;99.90;;;;;;4952550;29;20669;-72
2023/01/24 11:46:03;;;;;;;9.63;7.03;;;3.50;99.90;;;;;;4952081;29;20398;-72
2023/01/24 11:48:44;;;;;;;8.30;5.88;;;3.60;99.90;;;;;;4952150;29;20078;-72
2023/01/24 11:51:25;;;;;;;6.75;4.97;;;3.60;99.90;;;;;;4951804;28;20517;-72
2023/01/24 11:54:21;;;;;;;9.20;6.97;;;3.70;99.90;;;;;;4936088;29;20070;-72
2023/01/24 11:56:59;;;;;;;9.23;6.72;;;3.70;99.90;;;;;;4951953;29;20047;-72
2023/01/24 12:00:02;;;;;;;10.20;7.45;;;3.70;99.90;;;;;;4951864;29;20130;-72
2023/01/24 12:03:22;;;;;;;10.98;7.93;;;3.70;99.90;;;;;;4942995;29;20138;-72
2023/01/24 12:06:07;;;;;;;9.30;7.30;;;3.70;99.90;;;;;;4881186;29;20052;-72
2023/01/24 12:08:42;;;;;;;10.68;7.55;;;3.70;99.90;;;;;;4952102;29;20051;-72
2023/01/24 12:11:28;;;;;;;10.63;7.57;;;3.70;99.90;;;;;;4951770;29;20102;-72
2023/01/24 12:14:02;;;;;;;10.43;6.80;;;3.70;99.90;;;;;;4951914;29;20106;-72
2023/01/24 12:16:50;;;;;;;11.00;8.77;;;3.70;99.90;;;;;;4946869;29;20043;-72
2023/01/24 12:19:22;;;;;;;;;;;3.70;99.90;;;;;;4947207;29;20081;-71
2023/01/24 12:21:50;;;;;;;11.35;8.80;;;3.70;99.90;;;;;;4942406;29;19926;-72
2023/01/24 12:24:33;;;;;;;10.63;8.48;;;3.60;99.90;;;;;;4942977;29;20047;-72
2023/01/24 12:27:04;;;;;;;10.63;8.02;;;3.60;99.90;;;;;;4949936;29;20039;-72
2023/01/24 12:29:39;;;;;;;11.13;8.48;;;3.60;99.90;;;;;;4938089;29;20598;-72
2023/01/24 12:32:46;;;;;;;10.23;7.47;;;3.60;99.90;;;;;;4937646;29;20051;-72
2023/01/24 12:35:17;;;;;;;9.75;7.18;;;3.70;99.90;;;;;;4896428;29;20044;-72
2023/01/24 12:38:03;;;;;;;11.00;7.78;;;3.70;99.90;;;;;;4936170;29;20066;-72
2023/01/24 12:40:44;;;;;;;9.50;7.20;;;3.70;99.90;;;;;;4933786;29;20047;-72
2023/01/24 12:43:30;;;;;;;7.90;5.93;;;3.80;99.90;;;;;;4936292;29;20039;-72
2023/01/24 12:46:33;;;;;;;10.70;7.28;;;3.80;99.90;;;;;;4932133;29;20552;-72
2023/01/24 12:49:05;;;;;;;10.18;7.43;;;3.80;99.90;;;;;;4948599;29;20491;-72
2023/01/24 12:51:41;;;;;;;10.23;7.13;;;3.70;99.90;;;;;;4934333;29;20154;-72
2023/01/24 12:54:21;;;;;;;11.27;8.00;;;3.80;99.90;;;;;;4932513;29;20074;-72
2023/01/24 12:57:41;;;;;;;8.60;6.45;;;3.70;99.90;;;;;;4948461;29;20054;-72
2023/01/24 13:00:51;;;;;;;11.18;8.00;;;3.70;99.90;;;;;;4889479;29;20052;-72
2023/01/24 13:03:45;;;;;;;12.18;8.70;;;3.80;99.90;;;;;;4916917;29;20115;-72
2023/01/24 13:06:26;;;;;;;13.23;9.27;;;3.70;99.90;;;;;;4931836;29;20052;-72
2023/01/24 13:09:22;;;;;;;15.07;9.75;;;3.70;99.90;;;;;;4931664;29;20633;-72
2023/01/24 13:11:50;;;;;;;13.40;9.85;;;3.70;99.90;;;;;;4947696;29;20055;-72
2023/01/24 13:14:37;;;;;;;11.05;8.35;;;3.60;99.90;;;;;;4915924;29;20051;-72
2023/01/24 13:17:03;;;;;;;12.05;8.60;;;3.70;99.90;;;;;;4931719;29;20083;-72
2023/01/24 13:19:50;;;;;;;12.13;8.80;;;3.60;99.90;;;;;;4915941;29;20079;-72
2023/01/24 13:22:38;;;;;;;11.80;8.23;;;3.70;99.90;;;;;;4915847;29;20082;-72
2023/01/24 13:25:20;;;;;;;9.40;6.93;;;3.70;99.90;;;;;;4932686;29;20044;-72
2023/01/24 13:27:46;;;;;;;11.18;8.30;;;3.70;99.90;;;;;;4941249;29;20043;-72
2023/01/24 13:30:18;;;;;;;11.37;8.37;;;3.60;99.90;;;;;;4945388;28;20124;-72
2023/01/24 13:32:44;;;;;;;12.23;9.20;;;3.60;99.90;;;;;;4939015;29;20053;-72
2023/01/24 13:35:17;;;;;;;11.38;8.60;;;3.50;99.90;;;;;;4945416;29;20051;-72
2023/01/24 13:37:53;;;;;;;12.15;9.13;;;3.50;99.90;;;;;;4944969;29;20106;-72
2023/01/24 13:40:23;;;;;;;11.43;8.50;;;3.50;99.90;;;;;;4937693;29;20067;-72
2023/01/24 13:42:50;;;;;;;11.27;8.23;;;3.50;99.90;;;;;;4934989;29;20061;-72
2023/01/24 13:45:30;;;;;;;11.80;8.02;;;3.50;99.90;;;;;;4944590;29;20078;-72